sensor_id;sensor_type;location;lat;lon;timestamp;temperature;humidity
53675;DHT22;39574;50.534;8.500;2023-01-04T00:00:13;7.2;99.9
53675;DHT22;39574;50.534;8.500;2023-01-04T00:05:14;7.2;99.9
53675;DHT22;39574;50.534;8.500;2023-01-04T00:10:15;7.2;99.9
53675;DHT22;39574;50.534;8.500;2023-01-04T00:15:27;7.2;99.9
53675;DHT22;39574;50.534;8.500;2023-01-04T00:20:29;7.3;99.9
53675;DHT22;39574;50.534;8.500;2023-01-04T00:30:06;7.3;99.9
53675;DHT22;39574;50.534;8.500;2023-01-04T00:35:20;7.2;99.9
53675;DHT22;39574;50.534;8.500;2023-01-04T00:40:20;7.1;99.9
53675;DHT22;39574;50.534;8.500;2023-01-04T00:50:03;7.2;99.9
53675;DHT22;39574;50.534;8.500;2023-01-04T00:55:05;7.2;99.9
53675;DHT22;39574;50.534;8.500;2023-01-04T01:00:20;7.2;99.9
53675;DHT22;39574;50.534;8.500;2023-01-04T01:09:46;7.2;99.9
53675;DHT22;39574;50.534;8.500;2023-01-04T01:14:59;7.2;99.9
53675;DHT22;39574;50.534;8.500;2023-01-04T01:20:00;7.3;99.9
53675;DHT22;39574;50.534;8.500;2023-01-04T01:25:12;7.3;99.9
53675;DHT22;39574;50.534;8.500;2023-01-04T01:34:40;7.4;99.9
53675;DHT22;39574;50.534;8.500;2023-01-04T01:39:41;7.4;99.9
53675;DHT22;39574;50.534;8.500;2023-01-04T01:44:58;7.4;99.9
53675;DHT22;39574;50.534;8.500;2023-01-04T01:49:54;7.4;99.9
53675;DHT22;39574;50.534;8.500;2023-01-04T01:55:06;7.5;99.9
53675;DHT22;39574;50.534;8.500;2023-01-04T02:00:07;7.5;99.9
53675;DHT22;39574;50.534;8.500;2023-01-04T02:09:35;7.5;99.9
53675;DHT22;39574;50.534;8.500;2023-01-04T02:14:46;7.5;99.9
53675;DHT22;39574;50.534;8.500;2023-01-04T02:20:32;7.5;99.9
53675;DHT22;39574;50.534;8.500;2023-01-04T02:34:41;7.6;99.9
53675;DHT22;39574;50.534;8.500;2023-01-04T02:39:45;7.7;99.9
53675;DHT22;39574;50.534;8.500;2023-01-04T02:44:57;7.7;99.9
53675;DHT22;39574;50.534;8.500;2023-01-04T02:54:35;7.7;99.9
53675;DHT22;39574;50.534;8.500;2023-01-04T02:59:41;7.7;99.9
53675;DHT22;39574;50.534;8.500;2023-01-04T03:04:51;7.7;99.9
53675;DHT22;39574;50.534;8.500;2023-01-04T03:09:49;7.7;99.9
53675;DHT22;39574;50.534;8.500;2023-01-04T03:14:50;7.7;99.9
53675;DHT22;39574;50.534;8.500;2023-01-04T03:24:28;7.6;99.9
53675;DHT22;39574;50.534;8.500;2023-01-04T03:29:30;7.6;99.9
53675;DHT22;39574;50.534;8.500;2023-01-04T03:34:40;7.5;99.9
53675;DHT22;39574;50.534;8.500;2023-01-04T03:39:52;7.4;99.9
53675;DHT22;39574;50.534;8.500;2023-01-04T03:49:24;7.4;99.9
53675;DHT22;39574;50.534;8.500;2023-01-04T03:54:38;7.3;99.9
53675;DHT22;39574;50.534;8.500;2023-01-04T04:04:08;7.2;99.9
53675;DHT22;39574;50.534;8.500;2023-01-04T04:09:18;7.2;99.9
53675;DHT22;39574;50.534;8.500;2023-01-04T04:14:24;7.2;99.9
53675;DHT22;39574;50.534;8.500;2023-01-04T04:19:34;7.2;99.9
53675;DHT22;39574;50.534;8.500;2023-01-04T04:29:03;7.2;99.9
53675;DHT22;39574;50.534;8.500;2023-01-04T04:34:11;7.2;99.9
53675;DHT22;39574;50.534;8.500;2023-01-04T04:39:16;7.2;99.9
53675;DHT22;39574;50.534;8.500;2023-01-04T04:44:27;7.2;99.9
53675;DHT22;39574;50.534;8.500;2023-01-04T04:49:29;7.3;99.9
53675;DHT22;39574;50.534;8.500;2023-01-04T04:58:36;7.3;99.9
53675;DHT22;39574;50.534;8.500;2023-01-04T05:03:55;7.3;99.9
53675;DHT22;39574;50.534;8.500;2023-01-04T05:08:57;7.3;99.9
53675;DHT22;39574;50.534;8.500;2023-01-04T05:14:08;7.3;99.9
53675;DHT22;39574;50.534;8.500;2023-01-04T05:19:20;7.2;99.9
53675;DHT22;39574;50.534;8.500;2023-01-04T05:24:20;7.1;99.9
53675;DHT22;39574;50.534;8.500;2023-01-04T05:33:49;7.1;99.9
53675;DHT22;39574;50.534;8.500;2023-01-04T05:38:59;7.0;99.9
53675;DHT22;39574;50.534;8.500;2023-01-04T05:44:04;7.0;99.9
53675;DHT22;39574;50.534;8.500;2023-01-04T05:49:16;7.0;99.9
53675;DHT22;39574;50.534;8.500;2023-01-04T05:58:43;7.0;99.9
53675;DHT22;39574;50.534;8.500;2023-01-04T06:03:54;7.0;99.9
53675;DHT22;39574;50.534;8.500;2023-01-04T06:09:09;7.0;99.9
53675;DHT22;39574;50.534;8.500;2023-01-04T06:18:37;7.0;99.9
53675;DHT22;39574;50.534;8.500;2023-01-04T06:23:49;7.0;99.9
53675;DHT22;39574;50.534;8.500;2023-01-04T06:29:02;7.0;99.9
53675;DHT22;39574;50.534;8.500;2023-01-04T06:34:09;7.0;99.9
53675;DHT22;39574;50.534;8.500;2023-01-04T06:43:33;7.0;99.9
53675;DHT22;39574;50.534;8.500;2023-01-04T06:48:34;7.0;99.9
53675;DHT22;39574;50.534;8.500;2023-01-04T06:53:44;7.0;99.9
53675;DHT22;39574;50.534;8.500;2023-01-04T06:58:45;7.1;99.9
53675;DHT22;39574;50.534;8.500;2023-01-04T07:03:55;7.1;99.9
53675;DHT22;39574;50.534;8.500;2023-01-04T07:08:57;7.2;99.9
53675;DHT22;39574;50.534;8.500;2023-01-04T07:18:07;7.3;99.9
53675;DHT22;39574;50.534;8.500;2023-01-04T07:23:23;7.3;99.9
53675;DHT22;39574;50.534;8.500;2023-01-04T07:28:26;7.4;99.9
53675;DHT22;39574;50.534;8.500;2023-01-04T07:33:35;7.5;99.9
53675;DHT22;39574;50.534;8.500;2023-01-04T07:38:35;7.5;99.9
53675;DHT22;39574;50.534;8.500;2023-01-04T07:43:36;7.6;99.9
53675;DHT22;39574;50.534;8.500;2023-01-04T07:48:47;7.6;99.9
53675;DHT22;39574;50.534;8.500;2023-01-04T07:58:17;7.7;99.9
53675;DHT22;39574;50.534;8.500;2023-01-04T08:03:18;7.8;99.9
53675;DHT22;39574;50.534;8.500;2023-01-04T08:08:27;7.8;99.9
53675;DHT22;39574;50.534;8.500;2023-01-04T08:13:41;7.8;99.9
53675;DHT22;39574;50.534;8.500;2023-01-04T08:23:26;8.0;99.9
53675;DHT22;39574;50.534;8.500;2023-01-04T08:28:37;8.0;99.9
53675;DHT22;39574;50.534;8.500;2023-01-04T08:33:38;8.1;99.9
53675;DHT22;39574;50.534;8.500;2023-01-04T08:38:38;8.1;99.9
53675;DHT22;39574;50.534;8.500;2023-01-04T08:43:39;8.2;99.9
53675;DHT22;39574;50.534;8.500;2023-01-04T08:53:34;8.2;99.9
53675;DHT22;39574;50.534;8.500;2023-01-04T09:03:04;8.3;99.9
53675;DHT22;39574;50.534;8.500;2023-01-04T09:08:18;8.4;99.9
53675;DHT22;39574;50.534;8.500;2023-01-04T09:13:31;8.5;99.9
53675;DHT22;39574;50.534;8.500;2023-01-04T09:18:33;8.5;99.9
53675;DHT22;39574;50.534;8.500;2023-01-04T09:27:58;8.5;99.9
53675;DHT22;39574;50.534;8.500;2023-01-04T09:33:09;8.5;99.9
53675;DHT22;39574;50.534;8.500;2023-01-04T09:38:20;8.6;99.9
53675;DHT22;39574;50.534;8.500;2023-01-04T09:43:23;8.7;99.9
53675;DHT22;39574;50.534;8.500;2023-01-04T09:53:06;8.7;99.9
53675;DHT22;39574;50.534;8.500;2023-01-04T09:58:13;8.8;99.9
53675;DHT22;39574;50.534;8.500;2023-01-04T10:03:21;8.8;99.9
53675;DHT22;39574;50.534;8.500;2023-01-04T10:12:43;8.8;99.9
53675;DHT22;39574;50.534;8.500;2023-01-04T10:17:50;8.9;99.9
53675;DHT22;39574;50.534;8.500;2023-01-04T10:22:48;9.0;99.9
53675;DHT22;39574;50.534;8.500;2023-01-04T10:27:49;9.0;99.9
53675;DHT22;39574;50.534;8.500;2023-01-04T10:32:59;9.1;99.9
53675;DHT22;39574;50.534;8.500;2023-01-04T10:37:59;9.1;99.9
53675;DHT22;39574;50.534;8.500;2023-01-04T10:43:01;9.2;99.9
53675;DHT22;39574;50.534;8.500;2023-01-04T10:48:12;9.2;99.9
53675;DHT22;39574;50.534;8.500;2023-01-04T10:57:41;9.3;99.9
53675;DHT22;39574;50.534;8.500;2023-01-04T11:02:52;9.3;99.9
53675;DHT22;39574;50.534;8.500;2023-01-04T11:07:54;9.3;99.9
53675;DHT22;39574;50.534;8.500;2023-01-04T11:13:07;9.4;99.9
53675;DHT22;39574;50.534;8.500;2023-01-04T11:22:47;9.4;99.9
53675;DHT22;39574;50.534;8.500;2023-01-04T11:27:51;9.5;99.9
53675;DHT22;39574;50.534;8.500;2023-01-04T11:33:00;9.5;99.9
53675;DHT22;39574;50.534;8.500;2023-01-04T11:38:09;9.5;99.9
53675;DHT22;39574;50.534;8.500;2023-01-04T11:47:15;9.6;99.9
53675;DHT22;39574;50.534;8.500;2023-01-04T11:52:29;9.7;99.9
53675;DHT22;39574;50.534;8.500;2023-01-04T11:57:39;9.8;99.9
53675;DHT22;39574;50.534;8.500;2023-01-04T12:02:40;9.9;99.9
53675;DHT22;39574;50.534;8.500;2023-01-04T12:07:43;9.9;99.9
53675;DHT22;39574;50.534;8.500;2023-01-04T12:12:55;10.0;99.9
53675;DHT22;39574;50.534;8.500;2023-01-04T12:22:23;9.9;99.9
53675;DHT22;39574;50.534;8.500;2023-01-04T12:27:23;9.8;99.9
53675;DHT22;39574;50.534;8.500;2023-01-04T12:32:40;9.6;99.9
53675;DHT22;39574;50.534;8.500;2023-01-04T12:37:50;9.6;99.9
53675;DHT22;39574;50.534;8.500;2023-01-04T12:47:37;9.4;99.9
53675;DHT22;39574;50.534;8.500;2023-01-04T12:52:51;9.4;99.9
53675;DHT22;39574;50.534;8.500;2023-01-04T12:57:30;9.3;99.9
53675;DHT22;39574;50.534;8.500;2023-01-04T13:02:41;9.3;99.9
53675;DHT22;39574;50.534;8.500;2023-01-04T13:12:14;9.3;99.9
53675;DHT22;39574;50.534;8.500;2023-01-04T13:17:24;9.4;99.9
53675;DHT22;39574;50.534;8.500;2023-01-04T13:22:29;9.4;99.9
53675;DHT22;39574;50.534;8.500;2023-01-04T13:27:30;9.4;99.9
53675;DHT22;39574;50.534;8.500;2023-01-04T13:32:36;9.5;99.9
53675;DHT22;39574;50.534;8.500;2023-01-04T13:37:41;9.5;99.9
53675;DHT22;39574;50.534;8.500;2023-01-04T13:47:06;9.6;99.9
53675;DHT22;39574;50.534;8.500;2023-01-04T13:52:24;9.6;99.9
53675;DHT22;39574;50.534;8.500;2023-01-04T13:57:20;9.7;99.9
53675;DHT22;39574;50.534;8.500;2023-01-04T14:02:32;9.7;99.9
53675;DHT22;39574;50.534;8.500;2023-01-04T14:11:53;9.7;99.9
53675;DHT22;39574;50.534;8.500;2023-01-04T14:17:07;9.8;99.9
53675;DHT22;39574;50.534;8.500;2023-01-04T14:23:24;9.9;99.9
53675;DHT22;39574;50.534;8.500;2023-01-04T14:27:30;9.9;99.9
53675;DHT22;39574;50.534;8.500;2023-01-04T14:32:26;10.0;99.9
53675;DHT22;39574;50.534;8.500;2023-01-04T14:41:52;10.1;99.9
53675;DHT22;39574;50.534;8.500;2023-01-04T14:46:56;10.2;99.9
53675;DHT22;39574;50.534;8.500;2023-01-04T14:52:08;10.3;99.9
53675;DHT22;39574;50.534;8.500;2023-01-04T14:57:11;10.3;99.9
53675;DHT22;39574;50.534;8.500;2023-01-04T15:02:21;10.4;99.9
53675;DHT22;39574;50.534;8.500;2023-01-04T15:07:27;10.5;99.9
53675;DHT22;39574;50.534;8.500;2023-01-04T15:16:59;10.5;99.9
53675;DHT22;39574;50.534;8.500;2023-01-04T15:22:05;10.5;99.9
53675;DHT22;39574;50.534;8.500;2023-01-04T15:27:18;10.5;99.9
53675;DHT22;39574;50.534;8.500;2023-01-04T15:36:55;10.5;99.9
53675;DHT22;39574;50.534;8.500;2023-01-04T15:42:01;10.4;99.9
53675;DHT22;39574;50.534;8.500;2023-01-04T15:47:12;10.4;99.9
53675;DHT22;39574;50.534;8.500;2023-01-04T15:56:22;10.4;99.9
53675;DHT22;39574;50.534;8.500;2023-01-04T16:01:52;10.5;99.9
53675;DHT22;39574;50.534;8.500;2023-01-04T16:06:57;10.6;99.9
53675;DHT22;39574;50.534;8.500;2023-01-04T16:12:10;10.7;99.9
53675;DHT22;39574;50.534;8.500;2023-01-04T16:21:48;10.8;99.9
53675;DHT22;39574;50.534;8.500;2023-01-04T16:31:20;10.8;99.9
53675;DHT22;39574;50.534;8.500;2023-01-04T16:36:28;10.9;99.9
53675;DHT22;39574;50.534;8.500;2023-01-04T16:41:34;10.8;99.9
53675;DHT22;39574;50.534;8.500;2023-01-04T16:46:48;10.9;99.9
53675;DHT22;39574;50.534;8.500;2023-01-04T16:51:58;10.9;99.9
53675;DHT22;39574;50.534;8.500;2023-01-04T16:57:01;10.9;99.9
53675;DHT22;39574;50.534;8.500;2023-01-04T17:06:26;10.9;99.9
53675;DHT22;39574;50.534;8.500;2023-01-04T17:11:39;10.9;99.9
53675;DHT22;39574;50.534;8.500;2023-01-04T17:16:44;10.9;99.9
53675;DHT22;39574;50.534;8.500;2023-01-04T17:21:53;10.9;99.9
53675;DHT22;39574;50.534;8.500;2023-01-04T17:31:37;10.9;99.9
53675;DHT22;39574;50.534;8.500;2023-01-04T17:36:50;10.9;99.9
53675;DHT22;39574;50.534;8.500;2023-01-04T17:46:31;11.0;99.9
53675;DHT22;39574;50.534;8.500;2023-01-04T17:51:37;11.0;99.9
53675;DHT22;39574;50.534;8.500;2023-01-04T17:56:45;11.0;99.9
53675;DHT22;39574;50.534;8.500;2023-01-04T18:01:49;11.1;99.9
53675;DHT22;39574;50.534;8.500;2023-01-04T18:11:14;11.1;99.9
53675;DHT22;39574;50.534;8.500;2023-01-04T18:16:16;11.2;99.9
53675;DHT22;39574;50.534;8.500;2023-01-04T18:21:16;11.2;99.9
53675;DHT22;39574;50.534;8.500;2023-01-04T18:26:27;11.2;99.9
53675;DHT22;39574;50.534;8.500;2023-01-04T18:31:42;11.2;99.9
53675;DHT22;39574;50.534;8.500;2023-01-04T18:36:44;11.3;99.9
53675;DHT22;39574;50.534;8.500;2023-01-04T18:45:50;11.4;99.9
53675;DHT22;39574;50.534;8.500;2023-01-04T18:51:07;11.4;99.9
53675;DHT22;39574;50.534;8.500;2023-01-04T18:56:08;11.5;99.9
53675;DHT22;39574;50.534;8.500;2023-01-04T19:01:19;11.5;99.9
53675;DHT22;39574;50.534;8.500;2023-01-04T19:06:22;11.5;99.9
53675;DHT22;39574;50.534;8.500;2023-01-04T19:11:31;11.5;99.9
53675;DHT22;39574;50.534;8.500;2023-01-04T19:16:35;11.5;99.9
53675;DHT22;39574;50.534;8.500;2023-01-04T19:25:44;11.5;99.9
53675;DHT22;39574;50.534;8.500;2023-01-04T19:31:04;11.5;99.9
53675;DHT22;39574;50.534;8.500;2023-01-04T19:36:14;11.5;99.9
53675;DHT22;39574;50.534;8.500;2023-01-04T19:41:16;11.4;99.9
53675;DHT22;39574;50.534;8.500;2023-01-04T19:46:16;11.4;99.9
53675;DHT22;39574;50.534;8.500;2023-01-04T19:51:16;11.4;99.9
53675;DHT22;39574;50.534;8.500;2023-01-04T19:56:26;11.4;99.9
53675;DHT22;39574;50.534;8.500;2023-01-04T20:01:28;11.4;99.9
53675;DHT22;39574;50.534;8.500;2023-01-04T20:10:53;11.3;99.9
53675;DHT22;39574;50.534;8.500;2023-01-04T20:15:54;11.3;99.9
53675;DHT22;39574;50.534;8.500;2023-01-04T20:21:06;11.3;99.9
53675;DHT22;39574;50.534;8.500;2023-01-04T20:26:18;11.3;99.9
53675;DHT22;39574;50.534;8.500;2023-01-04T20:31:21;11.3;99.9
53675;DHT22;39574;50.534;8.500;2023-01-04T20:40:50;11.3;99.9
53675;DHT22;39574;50.534;8.500;2023-01-04T20:45:59;11.4;99.9
53675;DHT22;39574;50.534;8.500;2023-01-04T20:51:03;11.4;99.9
53675;DHT22;39574;50.534;8.500;2023-01-04T20:56:03;11.4;99.9
53675;DHT22;39574;50.534;8.500;2023-01-04T21:01:02;11.4;99.9
53675;DHT22;39574;50.534;8.500;2023-01-04T21:06:04;11.5;99.9
53675;DHT22;39574;50.534;8.500;2023-01-04T21:11:12;11.4;99.9
53675;DHT22;39574;50.534;8.500;2023-01-04T21:20:54;11.4;99.9
53675;DHT22;39574;50.534;8.500;2023-01-04T21:25:56;11.4;99.9
53675;DHT22;39574;50.534;8.500;2023-01-04T21:31:11;11.3;99.9
53675;DHT22;39574;50.534;8.500;2023-01-04T21:36:13;11.3;99.9
53675;DHT22;39574;50.534;8.500;2023-01-04T21:45:38;11.4;99.9
53675;DHT22;39574;50.534;8.500;2023-01-04T21:50:53;11.4;99.9
53675;DHT22;39574;50.534;8.500;2023-01-04T21:56:07;11.5;99.9
53675;DHT22;39574;50.534;8.500;2023-01-04T22:05:33;11.5;99.9
53675;DHT22;39574;50.534;8.500;2023-01-04T22:10:34;11.5;99.9
53675;DHT22;39574;50.534;8.500;2023-01-04T22:15:41;11.6;99.9
53675;DHT22;39574;50.534;8.500;2023-01-04T22:20:44;11.6;99.9
53675;DHT22;39574;50.534;8.500;2023-01-04T22:25:47;11.6;99.9
53675;DHT22;39574;50.534;8.500;2023-01-04T22:30:57;11.6;99.9
53675;DHT22;39574;50.534;8.500;2023-01-04T22:36:02;11.6;99.9
53675;DHT22;39574;50.534;8.500;2023-01-04T22:50:12;11.6;99.9
53675;DHT22;39574;50.534;8.500;2023-01-04T22:55:26;11.6;99.9
53675;DHT22;39574;50.534;8.500;2023-01-04T23:05:02;11.6;99.9
53675;DHT22;39574;50.534;8.500;2023-01-04T23:10:14;11.6;99.9
53675;DHT22;39574;50.534;8.500;2023-01-04T23:15:25;11.6;99.9
53675;DHT22;39574;50.534;8.500;2023-01-04T23:20:39;11.6;99.9
53675;DHT22;39574;50.534;8.500;2023-01-04T23:25:39;11.6;99.9
53675;DHT22;39574;50.534;8.500;2023-01-04T23:30:52;11.6;99.9
53675;DHT22;39574;50.534;8.500;2023-01-04T23:40:10;11.5;99.9
53675;DHT22;39574;50.534;8.500;2023-01-04T23:45:18;11.6;99.9
53675;DHT22;39574;50.534;8.500;2023-01-04T23:50:28;11.5;99.9
53675;DHT22;39574;50.534;8.500;2023-01-04T23:55:33;11.5;99.9
